createdAt,value
2018-04-23T00:00:02.865Z,6.30
2018-04-23T00:02:30.326Z,6.17
2018-04-23T00:04:58.610Z,7.43
2018-04-23T00:07:26.064Z,7.63
2018-04-23T00:09:53.513Z,6.17
2018-04-23T00:12:20.959Z,7.17
2018-04-23T00:14:48.412Z,6.57
2018-04-23T00:17:15.858Z,6.40
2018-04-23T00:19:43.317Z,5.13
2018-04-23T00:22:10.772Z,6.57
2018-04-23T00:24:38.221Z,8.00
2018-04-23T00:27:05.690Z,5.60
2018-04-23T00:29:33.129Z,6.63
2018-04-23T00:32:00.595Z,6.50
2018-04-23T00:34:28.036Z,7.17
2018-04-23T00:36:56.254Z,6.97
2018-04-23T00:39:23.721Z,6.33
2018-04-23T00:41:51.958Z,6.50
2018-04-23T00:44:19.408Z,5.47
2018-04-23T00:46:46.861Z,5.73
2018-04-23T00:49:14.308Z,4.70
2018-04-23T00:51:42.524Z,5.00
2018-04-23T00:54:09.973Z,5.17
2018-04-23T00:56:37.418Z,5.73
2018-04-23T00:59:04.896Z,5.43
2018-04-23T01:01:32.347Z,5.73
2018-04-23T01:03:59.798Z,6.27
2018-04-23T01:06:27.250Z,5.03
2018-04-23T01:08:54.693Z,5.50
2018-04-23T01:11:22.145Z,6.47
2018-04-23T01:13:49.594Z,6.53
2018-04-23T01:16:17.817Z,8.63
2018-04-23T01:18:45.265Z,6.47
2018-04-23T01:21:12.727Z,5.43
2018-04-23T01:23:40.173Z,5.43
2018-04-23T01:26:07.646Z,5.00
2018-04-23T01:28:35.110Z,6.47
2018-04-23T01:31:02.549Z,4.97
2018-04-23T01:33:30.000Z,5.00
2018-04-23T01:35:57.453Z,8.07
2018-04-23T01:38:24.914Z,7.40
2018-04-23T01:40:52.382Z,5.80
2018-04-23T01:43:19.829Z,6.17
2018-04-23T01:45:47.290Z,7.80
2018-04-23T01:48:14.731Z,6.03
2018-04-23T01:50:42.177Z,5.70
2018-04-23T01:53:09.621Z,5.60
2018-04-23T01:55:37.854Z,5.70
2018-04-23T01:58:05.306Z,5.00
2018-04-23T02:00:32.746Z,5.77
2018-04-23T02:03:00.198Z,5.43
2018-04-23T02:05:27.651Z,8.93
2018-04-23T02:07:55.148Z,5.13
2018-04-23T02:10:22.602Z,7.30
2018-04-23T02:12:50.059Z,5.40
2018-04-23T02:15:18.049Z,5.17
2018-04-23T02:17:45.498Z,5.23
2018-04-23T02:20:12.947Z,9.73
2018-04-23T02:22:40.394Z,6.13
2018-04-23T02:25:07.841Z,5.47
2018-04-23T02:27:35.289Z,5.53
2018-04-23T02:30:02.741Z,7.07
2018-04-23T02:32:30.191Z,5.90
2018-04-23T02:34:57.649Z,7.10
2018-04-23T02:37:25.113Z,8.37
2018-04-23T02:39:52.549Z,5.33
2018-04-23T02:42:20.010Z,5.27
2018-04-23T02:44:47.453Z,5.53
2018-04-23T02:47:14.908Z,5.83
2018-04-23T02:49:43.117Z,6.60
2018-04-23T02:52:10.575Z,6.37
2018-04-23T02:54:38.030Z,7.57
2018-04-23T02:57:05.482Z,6.43
2018-04-23T02:59:32.929Z,6.83
2018-04-23T03:02:00.366Z,5.73
2018-04-23T03:04:27.825Z,7.10
2018-04-23T03:06:55.274Z,6.43
2018-04-23T03:09:23.507Z,8.40
2018-04-23T03:11:50.955Z,5.67
2018-04-23T03:14:18.406Z,6.87
2018-04-23T03:16:45.863Z,8.10
2018-04-23T03:19:13.330Z,6.27
2018-04-23T03:21:40.794Z,5.60
2018-04-23T03:24:08.235Z,5.73
2018-04-23T03:26:35.695Z,5.10
2018-04-23T03:29:03.137Z,5.40
2018-04-23T03:31:30.597Z,5.77
2018-04-23T03:33:58.058Z,6.57
2018-04-23T03:36:25.502Z,6.10
2018-04-23T03:38:52.965Z,6.73
2018-04-23T03:41:20.410Z,5.57
2018-04-23T03:43:47.872Z,5.50
2018-04-23T03:46:15.314Z,6.47
2018-04-23T03:48:42.760Z,6.43
2018-04-23T03:51:10.981Z,9.07
2018-04-23T03:53:38.454Z,5.60
2018-04-23T03:56:05.897Z,6.13
2018-04-23T03:58:33.358Z,5.53
2018-04-23T04:01:00.814Z,7.67
2018-04-23T04:03:28.274Z,7.37
2018-04-23T04:05:55.725Z,5.77
2018-04-23T04:08:23.169Z,5.67
2018-04-23T04:10:50.719Z,5.63
2018-04-23T04:13:29.982Z,8.57
2018-04-23T04:16:09.385Z,7.27
2018-04-23T04:18:45.767Z,6.13
2018-04-23T04:21:13.232Z,5.77
2018-04-23T04:23:40.674Z,5.77
2018-04-23T04:26:08.119Z,7.10
2018-04-23T04:28:35.571Z,5.80
2018-04-23T04:31:03.026Z,6.67
2018-04-23T04:33:30.479Z,5.37
2018-04-23T04:35:57.922Z,6.50
2018-04-23T04:38:26.129Z,7.87
2018-04-23T04:40:53.579Z,7.63
2018-04-23T04:43:21.038Z,5.53
2018-04-23T04:45:48.486Z,7.40
2018-04-23T04:48:15.937Z,7.07
2018-04-23T04:50:44.147Z,6.93
2018-04-23T04:53:11.593Z,8.93
2018-04-23T04:55:39.053Z,6.97
2018-04-23T04:58:06.501Z,7.43
2018-04-23T05:00:33.969Z,7.30
2018-04-23T05:03:01.440Z,6.97
2018-04-23T05:05:28.869Z,6.83
2018-04-23T05:07:56.326Z,6.77
2018-04-23T05:10:23.766Z,5.90
2018-04-23T05:12:51.214Z,6.97
2018-04-23T05:15:18.665Z,5.80
2018-04-23T05:17:46.882Z,6.83
2018-04-23T05:20:14.363Z,7.70
2018-04-23T05:22:41.807Z,7.60
2018-04-23T05:25:09.269Z,7.93
2018-04-23T05:27:36.725Z,6.77
2018-04-23T05:30:04.184Z,7.80
2018-04-23T05:32:32.401Z,8.80
2018-04-23T05:35:00.620Z,8.43
2018-04-23T05:37:28.063Z,7.77
2018-04-23T05:39:55.506Z,5.97
2018-04-23T05:42:22.955Z,7.10
2018-04-23T05:44:51.185Z,6.37
2018-04-23T05:47:18.635Z,7.43
2018-04-23T05:49:46.845Z,5.30
2018-04-23T05:52:15.070Z,5.57
2018-04-23T05:54:42.517Z,10.77
2018-04-23T05:57:09.966Z,8.03
2018-04-23T05:59:37.407Z,5.57
2018-04-23T06:02:04.878Z,8.30
2018-04-23T06:04:32.315Z,6.33
2018-04-23T06:07:00.528Z,8.93
2018-04-23T06:09:28.073Z,7.80
2018-04-23T06:11:55.516Z,5.37
2018-04-23T06:14:23.916Z,6.23
2018-04-23T06:16:51.374Z,6.40
2018-04-23T06:19:18.854Z,6.13
2018-04-23T06:21:46.385Z,7.70
2018-04-23T06:24:14.002Z,6.63
2018-04-23T06:26:42.217Z,6.70
2018-04-23T06:29:09.677Z,6.37
2018-04-23T06:31:37.111Z,6.50
2018-04-23T06:34:04.571Z,6.57
2018-04-23T06:36:32.025Z,6.37
2018-04-23T06:38:59.480Z,6.43
2018-04-23T06:41:26.936Z,6.53
2018-04-23T06:43:54.387Z,5.67
2018-04-23T06:46:22.630Z,5.80
2018-04-23T06:48:50.054Z,5.60
2018-04-23T06:51:17.510Z,7.60
2018-04-23T06:53:44.958Z,7.23
2018-04-23T06:56:12.411Z,6.77
2018-04-23T06:58:39.865Z,8.07
2018-04-23T07:01:07.303Z,6.07
2018-04-23T07:03:35.529Z,7.20
2018-04-23T07:06:02.984Z,8.03
2018-04-23T07:08:30.558Z,7.43
2018-04-23T07:10:58.007Z,7.33
2018-04-23T07:13:25.460Z,8.73
2018-04-23T07:15:52.913Z,6.57
2018-04-23T07:18:20.366Z,5.60
2018-04-23T07:20:47.823Z,8.70
2018-04-23T07:23:15.274Z,7.57
2018-04-23T07:25:42.735Z,4.30
2018-04-23T07:28:10.183Z,4.13
2018-04-23T07:30:38.524Z,4.23
2018-04-23T07:33:06.245Z,5.87
2018-04-23T07:35:33.808Z,6.00
2018-04-23T07:38:01.804Z,8.07
2018-04-23T07:40:29.411Z,5.03
2018-04-23T07:42:57.085Z,5.87
2018-04-23T07:45:24.906Z,7.43
2018-04-23T07:47:53.241Z,6.33
2018-04-23T07:50:20.680Z,5.53
2018-04-23T07:52:48.126Z,8.37
2018-04-23T07:55:15.579Z,6.37
2018-04-23T07:57:43.028Z,7.63
2018-04-23T08:00:10.493Z,10.97
2018-04-23T08:02:37.947Z,12.73
2018-04-23T08:05:05.410Z,5.93
2018-04-23T08:07:32.860Z,8.47
2018-04-23T08:10:00.316Z,7.70
2018-04-23T08:12:27.758Z,8.50
2018-04-23T08:14:55.213Z,9.13
2018-04-23T08:17:23.428Z,10.13
2018-04-23T08:19:50.893Z,5.60
2018-04-23T08:22:18.347Z,7.90
2018-04-23T08:24:45.831Z,10.03
2018-04-23T08:27:13.288Z,7.30
2018-04-23T08:29:40.734Z,8.43
2018-04-23T08:32:08.177Z,7.17
2018-04-23T08:34:35.638Z,7.67
2018-04-23T08:37:03.093Z,7.80
2018-04-23T08:39:30.533Z,5.37
2018-04-23T08:41:57.997Z,6.80
2018-04-23T08:44:25.452Z,5.53
2018-04-23T08:46:52.894Z,5.30
2018-04-23T08:49:20.357Z,6.73
2018-04-23T08:51:47.829Z,8.37
2018-04-23T08:54:15.280Z,6.30
2018-04-23T08:56:42.730Z,7.43
2018-04-23T08:59:10.181Z,7.73
2018-04-23T09:01:37.661Z,10.17
2018-04-23T09:04:05.116Z,8.03
2018-04-23T09:06:32.567Z,7.47
2018-04-23T09:09:00.020Z,6.70
2018-04-23T09:11:27.482Z,7.07
2018-04-23T09:13:54.933Z,9.27
2018-04-23T09:16:22.390Z,9.60
2018-04-23T09:18:49.853Z,6.50
2018-04-23T09:21:17.331Z,14.13
2018-04-23T09:23:44.769Z,7.73
2018-04-23T09:26:12.219Z,9.90
2018-04-23T09:28:39.685Z,10.60
2018-04-23T09:31:07.135Z,7.20
2018-04-23T09:33:34.585Z,11.83
2018-04-23T09:36:02.039Z,6.27
2018-04-23T09:38:29.486Z,7.97
2018-04-23T09:40:56.941Z,5.67
2018-04-23T09:43:24.406Z,12.27
2018-04-23T09:45:51.869Z,4.53
2018-04-23T09:48:19.337Z,5.03
2018-04-23T09:50:46.790Z,10.00
2018-04-23T09:53:14.242Z,9.37
2018-04-23T09:55:41.697Z,10.30
2018-04-23T09:58:09.174Z,6.77
2018-04-23T10:00:36.632Z,7.97
2018-04-23T10:03:08.703Z,15.07
2018-04-23T10:05:36.145Z,6.93
2018-04-23T10:08:03.609Z,10.47
2018-04-23T10:10:31.066Z,3.93
2018-04-23T10:12:58.536Z,4.57
2018-04-23T10:15:25.984Z,5.73
2018-04-23T10:17:53.425Z,5.27
2018-04-23T10:20:20.890Z,5.10
2018-04-23T10:22:49.106Z,6.53
2018-04-23T10:25:17.332Z,5.40
2018-04-23T10:27:44.781Z,9.83
2018-04-23T10:30:12.221Z,7.40
2018-04-23T10:32:39.673Z,10.63
2018-04-23T10:35:07.129Z,7.47
2018-04-23T10:37:34.595Z,11.20
2018-04-23T10:40:02.159Z,7.53
2018-04-23T10:42:29.625Z,9.17
2018-04-23T10:44:57.098Z,7.70
2018-04-23T10:47:24.545Z,9.03
2018-04-23T10:49:52.035Z,8.37
2018-04-23T10:52:19.487Z,8.63
2018-04-23T10:54:46.946Z,7.57
2018-04-23T10:57:14.389Z,9.70
2018-04-23T10:59:41.843Z,4.83
2018-04-23T11:02:09.311Z,8.60
2018-04-23T11:04:36.755Z,5.17
2018-04-23T11:07:04.206Z,7.97
2018-04-23T11:09:31.641Z,9.13
2018-04-23T11:11:59.111Z,5.13
2018-04-23T11:14:26.567Z,10.93
2018-04-23T11:16:54.039Z,8.00
2018-04-23T11:19:21.487Z,9.70
2018-04-23T11:21:48.938Z,11.53
2018-04-23T11:24:16.392Z,10.43
2018-04-23T11:26:43.829Z,13.07
2018-04-23T11:29:11.280Z,10.77
2018-04-23T11:31:38.723Z,8.50
2018-04-23T11:34:06.941Z,16.17
2018-04-23T11:36:34.386Z,8.40
2018-04-23T11:39:01.843Z,10.73
2018-04-23T11:41:29.303Z,12.47
2018-04-23T11:43:56.757Z,11.47
2018-04-23T11:46:24.291Z,11.90
2018-04-23T11:48:52.498Z,10.70
2018-04-23T11:51:19.958Z,9.70
2018-04-23T11:53:47.440Z,8.00
2018-04-23T11:56:14.890Z,12.67
2018-04-23T11:58:42.342Z,13.47
2018-04-23T12:01:09.798Z,10.40
2018-04-23T12:03:37.253Z,12.90
2018-04-23T12:06:04.693Z,10.93
2018-04-23T12:08:32.150Z,9.43
2018-04-23T12:10:59.614Z,12.83
2018-04-23T12:13:27.071Z,15.70
2018-04-23T12:15:54.536Z,12.43
2018-04-23T12:18:21.994Z,9.60
2018-04-23T12:20:49.434Z,12.60
2018-04-23T12:23:16.881Z,13.63
2018-04-23T12:25:44.340Z,13.27
2018-04-23T12:28:11.810Z,11.07
2018-04-23T12:30:39.268Z,11.00
2018-04-23T12:33:06.730Z,13.80
2018-04-23T12:35:34.214Z,12.40
2018-04-23T12:38:01.729Z,15.60
2018-04-23T12:40:29.165Z,10.80
2018-04-23T12:42:56.625Z,11.80
2018-04-23T12:45:24.678Z,12.10
2018-04-23T12:47:52.912Z,13.03
2018-04-23T12:50:20.361Z,9.33
2018-04-23T12:52:47.824Z,15.70
2018-04-23T12:55:15.278Z,11.73
2018-04-23T12:57:42.738Z,12.80
2018-04-23T13:00:10.246Z,9.27
2018-04-23T13:02:38.469Z,14.37
2018-04-23T13:05:05.943Z,11.07
2018-04-23T13:07:33.389Z,11.40
2018-04-23T13:10:00.862Z,14.17
2018-04-23T13:12:28.304Z,13.13
2018-04-23T13:14:55.762Z,14.87
2018-04-23T13:17:23.213Z,11.23
2018-04-23T13:19:50.665Z,14.23
2018-04-23T13:22:18.126Z,11.73
2018-04-23T13:24:45.571Z,13.43
2018-04-23T13:27:13.036Z,13.47
2018-04-23T13:29:40.569Z,15.20
2018-04-23T13:32:08.042Z,10.13
2018-04-23T13:34:35.497Z,12.93
2018-04-23T13:37:02.950Z,11.33
2018-04-23T13:39:30.414Z,12.67
2018-04-23T13:41:57.896Z,13.37
2018-04-23T13:44:25.345Z,14.67
2018-04-23T13:46:52.809Z,20.37
2018-04-23T13:49:20.271Z,19.13
2018-04-23T13:51:47.725Z,17.37
2018-04-23T13:54:15.179Z,15.60
2018-04-23T13:56:42.621Z,16.77
2018-04-23T13:59:10.088Z,13.57
2018-04-23T14:01:37.544Z,16.80
2018-04-23T14:04:05.015Z,15.27
2018-04-23T14:06:32.467Z,17.57
2018-04-23T14:08:59.934Z,14.07
2018-04-23T14:11:27.400Z,16.17
2018-04-23T14:13:55.670Z,16.83
2018-04-23T14:16:23.159Z,17.90
2018-04-23T14:18:51.525Z,18.33
2018-04-23T14:21:18.992Z,17.67
2018-04-23T14:23:46.449Z,18.97
2018-04-23T14:26:13.901Z,17.30
2018-04-23T14:28:42.192Z,23.03
2018-04-23T14:31:09.692Z,19.90
2018-04-23T14:33:37.174Z,14.20
2018-04-23T14:36:04.700Z,14.17
2018-04-23T14:38:32.154Z,13.80
2018-04-23T14:40:59.611Z,12.80
2018-04-23T14:43:27.057Z,15.40
2018-04-23T14:45:54.545Z,12.77
2018-04-23T14:48:22.047Z,15.57
2018-04-23T14:50:49.523Z,11.73
2018-04-23T14:53:16.986Z,13.80
2018-04-23T14:55:44.446Z,14.37
2018-04-23T14:58:11.902Z,11.90
2018-04-23T15:00:39.371Z,13.27
2018-04-23T15:03:07.604Z,12.43
2018-04-23T15:05:35.061Z,10.97
2018-04-23T15:08:02.523Z,10.53
2018-04-23T15:10:30.228Z,12.03
2018-04-23T15:12:57.751Z,13.13
2018-04-23T15:15:25.252Z,11.53
2018-04-23T15:17:52.768Z,12.43
2018-04-23T15:20:20.972Z,15.47
2018-04-23T15:22:48.421Z,9.57
2018-04-23T15:25:15.878Z,9.20
2018-04-23T15:27:43.329Z,7.60
2018-04-23T15:30:10.799Z,7.60
2018-04-23T15:32:38.251Z,8.77
2018-04-23T15:35:05.709Z,10.07
2018-04-23T15:37:33.157Z,13.90
2018-04-23T15:40:00.605Z,8.20
2018-04-23T15:42:28.058Z,13.30
2018-04-23T15:44:55.505Z,9.83
2018-04-23T15:47:22.953Z,10.80
2018-04-23T15:49:50.406Z,11.00
2018-04-23T15:52:18.630Z,12.20
2018-04-23T15:54:46.096Z,12.87
2018-04-23T15:57:13.543Z,7.47
2018-04-23T15:59:40.983Z,10.67
2018-04-23T16:02:08.441Z,11.83
2018-04-23T16:04:35.907Z,10.53
2018-04-23T16:07:03.358Z,11.03
2018-04-23T16:09:30.825Z,13.57
2018-04-23T16:11:58.274Z,9.73
2018-04-23T16:14:25.738Z,8.33
2018-04-23T16:16:53.178Z,6.63
2018-04-23T16:19:20.631Z,12.43
2018-04-23T16:21:48.077Z,12.33
2018-04-23T16:24:15.545Z,8.33
2018-04-23T16:26:42.999Z,10.67
2018-04-23T16:29:10.454Z,11.70
2018-04-23T16:31:37.907Z,10.83
2018-04-23T16:34:05.362Z,12.13
2018-04-23T16:36:32.805Z,9.30
2018-04-23T16:39:01.013Z,8.93
2018-04-23T16:41:28.467Z,8.70
2018-04-23T16:43:55.913Z,8.13
2018-04-23T16:46:23.387Z,9.87
2018-04-23T16:48:50.858Z,9.67
2018-04-23T16:51:18.318Z,7.20
2018-04-23T16:53:45.895Z,10.40
2018-04-23T16:56:14.858Z,6.93
2018-04-23T16:58:42.375Z,8.27
2018-04-23T17:01:09.832Z,10.63
2018-04-23T17:03:38.038Z,10.67
2018-04-23T17:06:05.487Z,8.70
2018-04-23T17:08:32.932Z,10.43
2018-04-23T17:11:00.377Z,8.50
2018-04-23T17:13:28.606Z,8.83
2018-04-23T17:15:56.058Z,10.57
2018-04-23T17:18:23.507Z,6.63
2018-04-23T17:20:50.965Z,9.47
2018-04-23T17:23:18.435Z,10.83
2018-04-23T17:25:45.889Z,7.10
2018-04-23T17:28:13.330Z,8.70
2018-04-23T17:30:40.782Z,8.37
2018-04-23T17:33:08.237Z,8.20
2018-04-23T17:35:35.700Z,8.07
2018-04-23T17:38:03.149Z,11.17
2018-04-23T17:40:30.608Z,9.67
2018-04-23T17:42:58.058Z,11.57
2018-04-23T17:45:25.525Z,9.23
2018-04-23T17:47:52.974Z,11.20
2018-04-23T17:50:20.433Z,10.00
2018-04-23T17:52:47.888Z,10.80
2018-04-23T17:55:15.334Z,10.60
2018-04-23T17:57:42.778Z,9.17
2018-04-23T18:00:11.007Z,8.90
2018-04-23T18:02:38.458Z,11.33
2018-04-23T18:05:05.930Z,12.87
2018-04-23T18:07:33.374Z,8.97
2018-04-23T18:10:00.833Z,11.17
2018-04-23T18:12:29.434Z,8.97
2018-04-23T18:14:56.874Z,9.57
2018-04-23T18:17:24.321Z,8.93
2018-04-23T18:19:51.772Z,9.97
2018-04-23T18:22:19.216Z,9.43
2018-04-23T18:24:46.694Z,9.70
2018-04-23T18:27:14.137Z,10.53
2018-04-23T18:29:41.606Z,11.53
2018-04-23T18:32:09.047Z,10.60
2018-04-23T18:34:36.501Z,11.27
2018-04-23T18:37:03.954Z,12.37
2018-04-23T18:39:31.453Z,11.97
2018-04-23T18:41:58.847Z,9.03
2018-04-23T18:44:27.061Z,11.70
2018-04-23T18:46:54.516Z,13.63
2018-04-23T18:49:21.970Z,13.27
2018-04-23T18:51:49.442Z,14.90
2018-04-23T18:54:17.660Z,10.13
2018-04-23T18:56:45.873Z,12.00
2018-04-23T18:59:13.327Z,13.10
2018-04-23T19:01:40.802Z,9.47
2018-04-23T19:04:08.241Z,11.13
2018-04-23T19:06:35.710Z,13.17
2018-04-23T19:09:03.927Z,13.07
2018-04-23T19:11:32.138Z,13.87
2018-04-23T19:13:59.585Z,9.77
2018-04-23T19:16:27.038Z,14.53
2018-04-23T19:18:54.497Z,14.43
2018-04-23T19:21:21.952Z,13.73
2018-04-23T19:23:49.429Z,11.27
2018-04-23T19:26:16.878Z,14.70
2018-04-23T19:28:44.336Z,12.93
2018-04-23T19:31:11.799Z,15.13
2018-04-23T19:33:40.152Z,10.97
2018-04-23T19:36:08.366Z,11.80
2018-04-23T19:38:35.834Z,12.90
2018-04-23T19:41:03.287Z,13.60
2018-04-23T19:43:31.505Z,14.77
2018-04-23T19:45:59.815Z,11.27
2018-04-23T19:48:27.189Z,10.30
2018-04-23T19:50:54.641Z,13.27
2018-04-23T19:53:22.122Z,9.83
2018-04-23T19:55:49.569Z,13.47
2018-04-23T19:58:17.031Z,12.23
2018-04-23T20:00:44.502Z,16.50
2018-04-23T20:03:11.956Z,13.80
2018-04-23T20:05:39.406Z,15.73
2018-04-23T20:08:06.858Z,12.43
2018-04-23T20:10:34.314Z,12.10
2018-04-23T20:13:01.775Z,10.13
2018-04-23T20:15:29.230Z,11.63
2018-04-23T20:17:56.671Z,9.17
2018-04-23T20:20:24.129Z,10.00
2018-04-23T20:22:51.589Z,9.27
2018-04-23T20:25:19.039Z,12.93
2018-04-23T20:27:46.498Z,14.90
2018-04-23T20:30:13.946Z,12.67
2018-04-23T20:32:41.405Z,11.47
2018-04-23T20:35:08.861Z,12.70
2018-04-23T20:37:36.303Z,13.97
2018-04-23T20:40:03.753Z,11.23
2018-04-23T20:42:31.201Z,11.10
2018-04-23T20:44:58.654Z,12.90
2018-04-23T20:47:26.872Z,13.53
2018-04-23T20:49:54.329Z,13.27
2018-04-23T20:52:21.797Z,11.97
2018-04-23T20:54:49.245Z,7.90
2018-04-23T20:57:16.697Z,10.50
2018-04-23T20:59:44.908Z,11.90
2018-04-23T21:02:12.360Z,8.87
2018-04-23T21:04:39.878Z,12.37
2018-04-23T21:07:07.260Z,9.83
2018-04-23T21:09:34.717Z,11.60
2018-04-23T21:12:02.182Z,10.87
2018-04-23T21:14:29.634Z,10.23
2018-04-23T21:16:57.098Z,12.73
2018-04-23T21:19:24.558Z,10.63
2018-04-23T21:21:52.006Z,7.87
2018-04-23T21:24:19.461Z,10.50
2018-04-23T21:26:46.907Z,10.47
2018-04-23T21:29:14.362Z,11.07
2018-04-23T21:31:41.809Z,11.07
2018-04-23T21:34:09.273Z,12.17
2018-04-23T21:36:36.723Z,8.83
2018-04-23T21:39:04.166Z,9.53
2018-04-23T21:41:31.643Z,7.60
2018-04-23T21:43:59.862Z,10.67
2018-04-23T21:46:28.086Z,9.60
2018-04-23T21:48:55.531Z,9.23
2018-04-23T21:51:23.003Z,13.53
2018-04-23T21:53:50.437Z,9.20
2018-04-23T21:56:17.905Z,15.20
2018-04-23T21:58:45.358Z,9.90
2018-04-23T22:01:12.841Z,10.73
2018-04-23T22:03:40.299Z,12.27
2018-04-23T22:06:07.755Z,10.80
2018-04-23T22:08:35.218Z,9.30
2018-04-23T22:11:02.674Z,13.17
2018-04-23T22:13:30.118Z,10.43
2018-04-23T22:15:57.578Z,11.73
2018-04-23T22:18:25.063Z,14.37
2018-04-23T22:20:52.492Z,9.13
2018-04-23T22:23:19.942Z,12.07
2018-04-23T22:25:47.405Z,12.57
2018-04-23T22:28:14.858Z,11.97
2018-04-23T22:30:42.314Z,11.17
2018-04-23T22:33:09.762Z,15.97
2018-04-23T22:35:37.222Z,11.77
2018-04-23T22:38:04.673Z,9.40
2018-04-23T22:40:32.134Z,13.13
2018-04-23T22:42:59.598Z,13.37
2018-04-23T22:45:27.060Z,8.67
2018-04-23T22:47:54.518Z,13.00
2018-04-23T22:50:22.057Z,16.47
2018-04-23T22:52:50.200Z,11.83
2018-04-23T22:55:18.416Z,11.83
2018-04-23T22:57:45.902Z,9.70
2018-04-23T23:00:13.366Z,11.07
2018-04-23T23:02:40.831Z,10.83
2018-04-23T23:05:08.283Z,9.43
2018-04-23T23:07:35.746Z,10.90
2018-04-23T23:10:03.201Z,10.60
2018-04-23T23:12:30.650Z,8.07
2018-04-23T23:14:58.106Z,13.17
2018-04-23T23:17:25.554Z,10.93
2018-04-23T23:19:53.018Z,11.07
2018-04-23T23:22:20.525Z,10.40
2018-04-23T23:24:47.985Z,9.27
2018-04-23T23:27:15.451Z,12.13
2018-04-23T23:29:42.903Z,8.60
2018-04-23T23:32:10.370Z,11.07
2018-04-23T23:34:37.907Z,9.30
2018-04-23T23:37:05.369Z,9.67
2018-04-23T23:39:32.814Z,7.70
2018-04-23T23:42:00.275Z,9.47
2018-04-23T23:44:27.720Z,8.70
2018-04-23T23:46:55.205Z,10.13
2018-04-23T23:49:22.637Z,10.80
2018-04-23T23:51:50.099Z,14.00
2018-04-23T23:54:17.537Z,9.27
2018-04-23T23:56:45.745Z,9.83
2018-04-23T23:59:13.222Z,8.93
